aviador You're here:

KGED Decoded Metar

GEORGETOWN in DE, USA
Report Time2017-07-21 03:54:00
UTC Time2017-07-21 04:45:04
Flight Rules vfr VFR
Wind200° at 05 kt
W.Decomp.*RWY 22: 5.0 kt HW 0.7 kt LCW
RWY 28: 1.9 kt HW 4.6 kt LCW
W.Rank200° ranks 2
Current wind is below 200° avg. (7.6)
Visibility9999 m
Phenomena:N/A
Clouds:N/A
Expected CloudBase > 1,200 ft AGL from Temp-Dew spread
CeilingNone
Temp26°C (ISA +11)
Dew Point23°C (84% RH)
QNH1014 hPa
Density Alt1,683 ft
Elevation62 ft
Report Wrong Elevation
Raw Report
KGED 210354Z AUTO 20005KT 10SM CLR 26/23 A2994 RMK AO2 SLP137
T02610233=

Extra information for KGED:More info

Metar Taf Metar & Taf Last 4 Metars F.Rules Stats Wind Profile Meteogram Temp Stats Airport Information Weather charts Add Link Nearby VenuesMetar ALERT Operation Metar Decoded Social comments

AIRNAV info for KGED